createdAt,value
2018-01-01T00:01:16.767Z,83.83
2018-01-01T00:03:45.991Z,83.88
2018-01-01T00:06:15.266Z,84.05
2018-01-01T00:08:44.470Z,83.66
2018-01-01T00:11:13.739Z,83.28
2018-01-01T00:13:42.936Z,83.66
2018-01-01T00:16:12.147Z,83.38
2018-01-01T00:18:41.387Z,83.13
2018-01-01T00:21:10.589Z,83.12
2018-01-01T00:23:39.792Z,83.33
2018-01-01T00:26:09.066Z,82.85
2018-01-01T00:28:38.299Z,82.94
2018-01-01T00:31:07.474Z,82.40
2018-01-01T00:33:36.718Z,82.43
2018-01-01T00:36:06.721Z,82.05
2018-01-01T00:38:35.960Z,81.22
2018-01-01T00:41:05.257Z,81.84
2018-01-01T00:43:34.455Z,82.11
2018-01-01T00:46:03.694Z,83.00
2018-01-01T00:48:32.882Z,82.36
2018-01-01T00:51:02.112Z,82.43
2018-01-01T00:53:32.094Z,83.00
2018-01-01T00:56:01.432Z,83.20
2018-01-01T00:58:31.382Z,83.96
2018-01-01T01:01:00.717Z,83.91
2018-01-01T01:03:29.940Z,83.38
2018-01-01T01:05:59.928Z,83.19
2018-01-01T01:08:29.138Z,83.60
2018-01-01T01:10:58.337Z,83.76
2018-01-01T01:13:28.331Z,83.94
2018-01-01T01:15:57.529Z,83.73
2018-01-01T01:18:26.735Z,83.94
2018-01-01T01:20:56.734Z,83.20
2018-01-01T01:23:25.902Z,83.17
2018-01-01T01:25:55.215Z,83.25
2018-01-01T01:28:24.406Z,83.41
2018-01-01T01:30:53.610Z,83.67
2018-01-01T01:33:23.119Z,84.16
2018-01-01T01:35:52.313Z,83.88
2018-01-01T01:38:21.518Z,83.80
2018-01-01T01:40:50.754Z,83.47
2018-01-01T01:43:19.951Z,83.54
2018-01-01T01:45:49.149Z,83.15
2018-01-01T01:48:18.360Z,82.87
2018-01-01T01:50:48.296Z,82.69
2018-01-01T01:53:17.505Z,82.64
2018-01-01T01:55:46.739Z,82.44
2018-01-01T01:58:15.954Z,81.46
2018-01-01T02:00:45.199Z,81.37
2018-01-01T02:03:14.393Z,81.67
2018-01-01T02:05:43.580Z,80.48
2018-01-01T02:08:12.955Z,79.78
2018-01-01T02:10:42.922Z,79.84
2018-01-01T02:13:12.103Z,79.68
2018-01-01T02:15:41.434Z,78.41
2018-01-01T02:18:10.611Z,78.30
2018-01-01T02:20:39.798Z,78.24
2018-01-01T02:23:09.115Z,78.05
2018-01-01T02:25:38.301Z,77.97
2018-01-01T02:28:07.549Z,77.94
2018-01-01T02:30:37.522Z,77.67
2018-01-01T02:33:06.734Z,77.19
2018-01-01T02:35:35.933Z,76.87
2018-01-01T02:38:05.958Z,76.61
2018-01-01T02:40:35.134Z,76.48
2018-01-01T02:43:04.319Z,76.67
2018-01-01T02:45:33.492Z,75.75
2018-01-01T02:48:02.706Z,76.20
2018-01-01T02:50:31.871Z,74.83
2018-01-01T02:53:01.824Z,75.23
2018-01-01T02:55:31.018Z,75.04
2018-01-01T02:58:00.237Z,75.13
2018-01-01T03:00:29.414Z,75.23
2018-01-01T03:02:58.629Z,74.51
2018-01-01T03:05:28.077Z,74.45
2018-01-01T03:07:58.046Z,75.34
2018-01-01T03:10:27.311Z,75.38
2018-01-01T03:12:56.870Z,74.91
2018-01-01T03:15:26.063Z,75.17
2018-01-01T03:17:55.240Z,74.59
2018-01-01T03:20:24.478Z,74.75
2018-01-01T03:22:54.441Z,74.44
2018-01-01T03:25:23.709Z,74.71
2018-01-01T03:27:53.663Z,74.02
2018-01-01T03:30:22.895Z,74.58
2018-01-01T03:32:52.084Z,74.68
2018-01-01T03:35:21.379Z,74.39
2018-01-01T03:37:50.572Z,74.95
2018-01-01T03:40:19.763Z,74.87
2018-01-01T03:42:48.950Z,75.11
2018-01-01T03:45:18.166Z,74.94
2018-01-01T03:47:47.491Z,74.63
2018-01-01T03:50:16.666Z,75.15
2018-01-01T03:52:45.852Z,75.29
2018-01-01T03:55:15.046Z,75.31
2018-01-01T03:57:44.281Z,75.27
2018-01-01T04:00:14.247Z,75.12
2018-01-01T04:02:44.257Z,75.29
2018-01-01T04:05:13.450Z,75.15
2018-01-01T04:07:42.661Z,74.75
2018-01-01T04:10:11.836Z,74.81
2018-01-01T04:12:41.036Z,75.41
2018-01-01T04:15:10.218Z,75.15
2018-01-01T04:17:39.411Z,75.44
2018-01-01T04:20:08.605Z,75.38
2018-01-01T04:22:38.578Z,75.47
2018-01-01T04:25:07.787Z,75.03
2018-01-01T04:27:36.973Z,74.59
2018-01-01T04:30:06.162Z,75.31
2018-01-01T04:32:35.339Z,75.12
2018-01-01T04:35:04.529Z,74.84
2018-01-01T04:37:33.749Z,74.30
2018-01-01T04:40:02.975Z,74.36
2018-01-01T04:42:32.149Z,74.38
2018-01-01T04:45:01.402Z,74.17
2018-01-01T04:47:30.619Z,74.94
2018-01-01T04:49:59.881Z,74.24
2018-01-01T04:52:29.844Z,74.18
2018-01-01T04:54:59.018Z,74.24
2018-01-01T04:57:28.211Z,74.15
2018-01-01T04:59:57.401Z,73.86
2018-01-01T05:02:26.594Z,73.70
2018-01-01T05:04:56.534Z,74.33
2018-01-01T05:07:25.743Z,73.82
2018-01-01T05:09:54.938Z,72.78
2018-01-01T05:12:24.130Z,73.13
2018-01-01T05:14:54.141Z,73.22
2018-01-01T05:17:23.346Z,73.46
2018-01-01T05:19:52.538Z,73.60
2018-01-01T05:22:21.723Z,73.79
2018-01-01T05:24:50.914Z,73.86
2018-01-01T05:27:20.107Z,74.42
2018-01-01T05:29:49.450Z,74.27
2018-01-01T05:32:18.641Z,74.34
2018-01-01T05:34:47.903Z,74.95
2018-01-01T05:37:17.891Z,75.58
2018-01-01T05:39:47.074Z,76.26
2018-01-01T05:42:16.273Z,76.05
2018-01-01T05:44:45.446Z,76.78
2018-01-01T05:47:14.651Z,76.08
2018-01-01T05:49:43.903Z,76.19
2018-01-01T05:52:13.087Z,75.34
2018-01-01T05:54:43.051Z,75.52
2018-01-01T05:57:12.235Z,75.57
2018-01-01T05:59:41.427Z,75.52
2018-01-01T06:02:10.602Z,75.73
2018-01-01T06:04:39.794Z,75.87
2018-01-01T06:07:09.755Z,76.15
2018-01-01T06:09:39.807Z,76.25
2018-01-01T06:12:09.878Z,75.86
2018-01-01T06:14:39.077Z,75.97
2018-01-01T06:17:08.278Z,76.17
2018-01-01T06:19:37.582Z,76.08
2018-01-01T06:22:06.787Z,75.80
2018-01-01T06:24:36.011Z,75.71
2018-01-01T06:27:05.218Z,75.93
2018-01-01T06:29:35.164Z,76.19
2018-01-01T06:32:04.358Z,76.19
2018-01-01T06:34:33.612Z,76.54
2018-01-01T06:37:02.843Z,76.33
2018-01-01T06:39:32.035Z,76.75
2018-01-01T06:42:01.184Z,76.59
2018-01-01T06:44:30.389Z,76.55
2018-01-01T06:46:59.587Z,76.99
2018-01-01T06:49:28.782Z,76.82
2018-01-01T06:51:57.966Z,76.91
2018-01-01T06:54:27.149Z,77.04
2018-01-01T06:56:56.329Z,76.82
2018-01-01T06:59:25.518Z,76.74
2018-01-01T07:01:54.702Z,77.19
2018-01-01T07:04:24.686Z,77.31
2018-01-01T07:06:53.903Z,77.43
2018-01-01T07:09:23.998Z,77.24
2018-01-01T07:11:53.207Z,77.59
2018-01-01T07:14:22.421Z,77.48
2018-01-01T07:16:51.606Z,77.51
2018-01-01T07:19:20.793Z,77.60
2018-01-01T07:21:50.040Z,77.62
2018-01-01T07:24:19.302Z,77.66
2018-01-01T07:26:48.510Z,77.85
2018-01-01T07:29:18.464Z,77.73
2018-01-01T07:31:47.707Z,77.73
2018-01-01T07:34:16.894Z,77.57
2018-01-01T07:36:46.059Z,77.36
2018-01-01T07:39:15.279Z,77.06
2018-01-01T07:41:44.445Z,76.13
2018-01-01T07:44:13.708Z,76.24
2018-01-01T07:46:43.650Z,76.34
2018-01-01T07:49:12.862Z,76.34
2018-01-01T07:51:42.058Z,75.54
2018-01-01T07:54:11.233Z,75.43
2018-01-01T07:56:40.426Z,75.38
2018-01-01T07:59:10.374Z,75.47
2018-01-01T08:01:39.565Z,74.97
2018-01-01T08:04:08.781Z,74.95
2018-01-01T08:06:37.963Z,74.97
2018-01-01T08:09:07.160Z,74.84
2018-01-01T08:11:36.400Z,74.52
2018-01-01T08:14:05.558Z,75.14
2018-01-01T08:16:34.746Z,74.13
2018-01-01T08:19:04.031Z,74.93
2018-01-01T08:21:33.209Z,74.65
2018-01-01T08:24:03.187Z,74.25
2018-01-01T08:26:32.366Z,74.48
2018-01-01T08:29:01.545Z,74.57
2018-01-01T08:31:30.824Z,74.56
2018-01-01T08:34:00.007Z,74.22
2018-01-01T08:36:30.013Z,74.05
2018-01-01T08:38:59.213Z,74.32
2018-01-01T08:41:29.152Z,74.78
2018-01-01T08:43:58.364Z,74.78
2018-01-01T08:46:27.571Z,74.45
2018-01-01T08:48:56.787Z,74.38
2018-01-01T08:51:26.027Z,74.56
2018-01-01T08:53:56.099Z,74.60
2018-01-01T08:56:25.317Z,74.60
2018-01-01T08:58:54.478Z,74.55
2018-01-01T09:01:23.704Z,75.02
2018-01-01T09:03:52.915Z,74.88
2018-01-01T09:06:22.122Z,74.82
2018-01-01T09:08:51.287Z,74.52
2018-01-01T09:11:20.488Z,74.51
2018-01-01T09:13:49.680Z,75.12
2018-01-01T09:16:18.930Z,74.92
2018-01-01T09:18:48.883Z,74.79
2018-01-01T09:21:19.033Z,74.97
2018-01-01T09:23:48.211Z,74.80
2018-01-01T09:26:17.397Z,74.60
2018-01-01T09:28:46.587Z,74.21
2018-01-01T09:31:15.765Z,74.31
2018-01-01T09:33:44.967Z,74.11
2018-01-01T09:36:14.131Z,73.77
2018-01-01T09:38:44.098Z,74.08
2018-01-01T09:41:13.258Z,74.10
2018-01-01T09:43:42.482Z,74.47
2018-01-01T09:46:11.686Z,74.27
2018-01-01T09:48:40.861Z,74.65
2018-01-01T09:51:10.811Z,74.74
2018-01-01T09:53:40.007Z,75.36
2018-01-01T09:56:09.197Z,75.70
2018-01-01T09:58:38.397Z,76.17
2018-01-01T10:01:08.386Z,76.21
2018-01-01T10:03:37.608Z,76.05
2018-01-01T10:06:06.804Z,76.36
2018-01-01T10:08:35.978Z,76.56
2018-01-01T10:11:05.166Z,76.67
2018-01-01T10:13:34.356Z,76.54
2018-01-01T10:16:04.324Z,76.55
2018-01-01T10:18:33.507Z,76.69
2018-01-01T10:21:02.729Z,76.47
2018-01-01T10:23:31.907Z,76.66
2018-01-01T10:26:01.131Z,76.63
2018-01-01T10:28:30.293Z,76.43
2018-01-01T10:30:59.503Z,76.44
2018-01-01T10:33:29.445Z,76.37
2018-01-01T10:35:59.422Z,76.79
2018-01-01T10:38:29.324Z,77.03
2018-01-01T10:40:58.522Z,77.56
2018-01-01T10:43:27.733Z,77.74
2018-01-01T10:45:56.904Z,77.43
2018-01-01T10:48:26.087Z,77.29
2018-01-01T10:50:55.423Z,77.17
2018-01-01T10:53:24.622Z,77.44
2018-01-01T10:55:53.804Z,77.03
2018-01-01T10:58:22.986Z,76.89
2018-01-01T11:00:52.157Z,76.32
2018-01-01T11:03:22.126Z,76.79
2018-01-01T11:05:51.370Z,76.30
2018-01-01T11:08:21.354Z,76.28
2018-01-01T11:10:50.570Z,76.03
2018-01-01T11:13:19.746Z,76.03
2018-01-01T11:15:48.966Z,75.96
2018-01-01T11:18:18.171Z,75.49
2018-01-01T11:20:48.161Z,75.45
2018-01-01T11:23:17.338Z,75.45
2018-01-01T11:25:46.537Z,75.67
2018-01-01T11:28:15.723Z,75.38
2018-01-01T11:30:44.937Z,75.75
2018-01-01T11:33:14.113Z,75.55
2018-01-01T11:35:43.322Z,75.07
2018-01-01T11:38:12.562Z,74.75
2018-01-01T11:40:41.783Z,74.76
2018-01-01T11:43:11.822Z,74.55
2018-01-01T11:45:41.010Z,74.61
2018-01-01T11:48:10.215Z,74.64
2018-01-01T11:50:39.499Z,73.77
2018-01-01T11:53:09.548Z,73.10
2018-01-01T11:55:38.752Z,73.50
2018-01-01T11:58:07.939Z,73.68
2018-01-01T12:00:37.132Z,73.65
2018-01-01T12:03:06.335Z,74.35
2018-01-01T12:05:35.555Z,74.21
2018-01-01T12:08:04.791Z,74.08
2018-01-01T12:10:34.770Z,73.95
2018-01-01T12:13:04.085Z,74.02
2018-01-01T12:15:35.133Z,73.46
2018-01-01T12:18:05.938Z,73.10
2018-01-01T12:20:35.130Z,73.33
2018-01-01T12:23:04.334Z,72.62
2018-01-01T12:25:33.527Z,72.59
2018-01-01T12:28:02.751Z,72.56
2018-01-01T12:30:31.943Z,72.75
2018-01-01T12:33:01.122Z,72.18
2018-01-01T12:35:30.332Z,72.66
2018-01-01T12:37:59.490Z,71.88
2018-01-01T12:40:28.718Z,72.21
2018-01-01T12:42:57.926Z,71.91
2018-01-01T12:45:27.147Z,71.53
2018-01-01T12:47:56.309Z,71.04
2018-01-01T12:50:25.516Z,71.09
2018-01-01T12:52:54.701Z,70.91
2018-01-01T12:55:23.988Z,71.24
2018-01-01T12:57:55.023Z,71.14
2018-01-01T13:00:24.235Z,71.61
2018-01-01T13:02:53.453Z,71.41
2018-01-01T13:05:22.673Z,71.89
2018-01-01T13:07:52.650Z,72.17
2018-01-01T13:10:21.855Z,71.59
2018-01-01T13:12:51.046Z,71.61
2018-01-01T13:15:20.238Z,71.09
2018-01-01T13:17:49.447Z,71.52
2018-01-01T13:20:18.650Z,71.19
2018-01-01T13:22:47.854Z,71.20
2018-01-01T13:25:17.042Z,71.37
2018-01-01T13:27:46.248Z,70.47
2018-01-01T13:30:15.447Z,70.69
2018-01-01T13:32:44.678Z,70.95
2018-01-01T13:35:13.875Z,71.22
2018-01-01T13:37:43.061Z,70.56
2018-01-01T13:40:12.295Z,70.23
2018-01-01T13:42:41.503Z,69.37
2018-01-01T13:45:10.686Z,70.07
2018-01-01T13:47:39.898Z,69.66
2018-01-01T13:50:09.136Z,69.06
2018-01-01T13:52:39.080Z,69.52
2018-01-01T13:55:08.307Z,69.63
2018-01-01T13:57:37.490Z,68.98
2018-01-01T14:00:06.697Z,69.47
2018-01-01T14:02:35.886Z,70.16
2018-01-01T14:05:05.139Z,69.93
2018-01-01T14:07:35.089Z,70.07
2018-01-01T14:10:04.379Z,70.19
2018-01-01T14:12:33.563Z,69.93
2018-01-01T14:15:02.808Z,69.64
2018-01-01T14:17:32.079Z,70.09
2018-01-01T14:20:01.282Z,69.95
2018-01-01T14:22:30.521Z,70.50
2018-01-01T14:25:00.487Z,70.68
2018-01-01T14:27:29.678Z,70.45
2018-01-01T14:29:58.863Z,70.86
2018-01-01T14:32:28.062Z,70.77
2018-01-01T14:34:57.252Z,70.28
2018-01-01T14:37:27.250Z,70.80
2018-01-01T14:39:57.202Z,71.42
2018-01-01T14:42:26.412Z,70.89
2018-01-01T14:44:56.434Z,70.75
2018-01-01T14:47:25.644Z,70.65
2018-01-01T14:49:54.848Z,70.93
2018-01-01T14:52:24.140Z,70.59
2018-01-01T14:54:53.312Z,70.55
2018-01-01T14:57:22.529Z,70.95
2018-01-01T14:59:51.746Z,71.19
2018-01-01T15:02:20.943Z,70.60
2018-01-01T15:04:50.279Z,70.89
2018-01-01T15:07:20.241Z,70.79
2018-01-01T15:09:49.544Z,70.87
2018-01-01T15:12:18.777Z,71.03
2018-01-01T15:14:48.012Z,71.01
2018-01-01T15:17:17.189Z,71.51
2018-01-01T15:19:47.169Z,71.45
2018-01-01T15:22:16.352Z,71.34
2018-01-01T15:24:45.568Z,71.91
2018-01-01T15:27:14.758Z,72.40
2018-01-01T15:29:43.974Z,72.34
2018-01-01T15:32:13.976Z,72.36
2018-01-01T15:34:43.189Z,72.55
2018-01-01T15:37:13.174Z,72.73
2018-01-01T15:39:42.355Z,72.83
2018-01-01T15:42:11.558Z,72.96
2018-01-01T15:44:40.756Z,73.52
2018-01-01T15:47:09.963Z,73.57
2018-01-01T15:49:39.214Z,74.79
2018-01-01T15:52:08.420Z,75.01
2018-01-01T15:54:37.745Z,75.83
2018-01-01T15:57:06.938Z,76.97
2018-01-01T15:59:36.195Z,77.27
2018-01-01T16:02:06.258Z,77.50
2018-01-01T16:04:35.531Z,77.50
2018-01-01T16:07:04.758Z,77.43
2018-01-01T16:09:33.955Z,77.13
2018-01-01T16:12:03.162Z,77.59
2018-01-01T16:14:32.480Z,76.96
2018-01-01T16:17:01.664Z,77.34
2018-01-01T16:19:30.967Z,77.38
2018-01-01T16:22:00.303Z,77.07
2018-01-01T16:24:30.360Z,77.26
2018-01-01T16:26:59.685Z,77.31
2018-01-01T16:29:29.005Z,77.55
2018-01-01T16:31:59.078Z,76.91
2018-01-01T16:34:28.308Z,77.33
2018-01-01T16:36:57.625Z,77.45
2018-01-01T16:39:26.894Z,77.88
2018-01-01T16:41:56.130Z,78.83
2018-01-01T16:44:26.147Z,78.93
2018-01-01T16:46:56.121Z,79.33
2018-01-01T16:49:25.376Z,79.01
2018-01-01T16:51:54.609Z,79.55
2018-01-01T16:54:23.813Z,79.28
2018-01-01T16:56:53.034Z,80.49
2018-01-01T16:59:22.329Z,79.83
2018-01-01T17:01:51.786Z,80.48
2018-01-01T17:04:21.048Z,81.04
2018-01-01T17:06:50.304Z,81.70
2018-01-01T17:09:19.538Z,81.31
2018-01-01T17:11:48.848Z,82.20
2018-01-01T17:14:18.924Z,82.16
2018-01-01T17:16:48.273Z,82.59
2018-01-01T17:19:18.338Z,81.51
2018-01-01T17:21:47.766Z,81.85
2018-01-01T17:24:16.969Z,82.47
2018-01-01T17:26:46.506Z,82.23
2018-01-01T17:29:15.750Z,82.18
2018-01-01T17:31:44.953Z,82.20
2018-01-01T17:34:14.319Z,82.10
2018-01-01T17:36:43.536Z,82.57
2018-01-01T17:39:12.775Z,83.26
2018-01-01T17:41:41.967Z,83.92
2018-01-01T17:44:11.165Z,83.52
2018-01-01T17:46:41.490Z,84.00
2018-01-01T17:49:10.971Z,84.14
2018-01-01T17:51:40.389Z,84.52
2018-01-01T17:54:10.236Z,84.01
2018-01-01T17:56:39.802Z,84.68
2018-01-01T17:59:09.286Z,84.64
2018-01-01T18:01:39.303Z,84.50
2018-01-01T18:04:09.751Z,84.45
2018-01-01T18:06:39.149Z,84.32
2018-01-01T18:09:08.547Z,84.50
2018-01-01T18:11:38.185Z,84.53
2018-01-01T18:14:09.243Z,84.32
2018-01-01T18:16:38.767Z,84.67
2018-01-01T18:19:08.621Z,84.89
2018-01-01T18:21:39.050Z,85.10
2018-01-01T18:24:09.041Z,85.42
2018-01-01T18:26:38.988Z,85.26
2018-01-01T18:29:08.471Z,85.62
2018-01-01T18:31:38.075Z,85.74
2018-01-01T18:34:08.123Z,85.78
2018-01-01T18:36:37.644Z,85.53
2018-01-01T18:39:07.075Z,85.80
2018-01-01T18:41:37.269Z,85.99
2018-01-01T18:44:07.217Z,86.07
2018-01-01T18:46:36.919Z,86.18
2018-01-01T18:49:06.314Z,85.73
2018-01-01T18:51:35.891Z,85.98
2018-01-01T18:54:05.295Z,85.95
2018-01-01T18:56:35.666Z,86.38
2018-01-01T18:59:05.787Z,86.36
2018-01-01T19:01:35.454Z,85.65
2018-01-01T19:04:05.066Z,85.62
2018-01-01T19:06:34.478Z,86.08
2018-01-01T19:09:03.947Z,86.03
2018-01-01T19:11:33.419Z,85.69
2018-01-01T19:14:03.040Z,85.90
2018-01-01T19:16:32.806Z,85.92
2018-01-01T19:19:03.033Z,85.78
2018-01-01T19:21:32.635Z,85.55
2018-01-01T19:24:03.598Z,85.80
2018-01-01T19:26:33.828Z,86.04
2018-01-01T19:29:04.350Z,86.09
2018-01-01T19:31:33.978Z,86.24
2018-01-01T19:34:03.671Z,86.40
2018-01-01T19:36:34.205Z,86.29
2018-01-01T19:39:04.415Z,86.31
2018-01-01T19:41:34.047Z,86.44
2018-01-01T19:44:03.691Z,86.63
2018-01-01T19:46:33.359Z,86.74
2018-01-01T19:49:03.079Z,86.98
2018-01-01T19:51:32.794Z,86.73
2018-01-01T19:54:02.400Z,86.94
2018-01-01T19:56:33.391Z,87.17
2018-01-01T19:59:03.049Z,87.16
2018-01-01T20:01:33.993Z,86.82
2018-01-01T20:04:08.139Z,86.75
2018-01-01T20:06:38.391Z,86.59
2018-01-01T20:09:08.791Z,87.02
2018-01-01T20:11:39.173Z,87.14
2018-01-01T20:14:08.731Z,87.07
2018-01-01T20:16:38.677Z,87.06
2018-01-01T20:19:08.039Z,86.92
2018-01-01T20:21:37.502Z,86.99
2018-01-01T20:24:08.123Z,86.79
2018-01-01T20:26:38.433Z,87.11
2018-01-01T20:29:08.422Z,87.27
2018-01-01T20:31:38.357Z,87.58
2018-01-01T20:34:07.944Z,87.59
2018-01-01T20:36:37.647Z,87.58
2018-01-01T20:39:07.768Z,87.69
2018-01-01T20:41:37.239Z,87.49
2018-01-01T20:44:06.583Z,87.31
2018-01-01T20:46:36.352Z,87.33
2018-01-01T20:49:05.900Z,87.60
2018-01-01T20:51:35.229Z,87.26
2018-01-01T20:54:05.692Z,86.95
2018-01-01T20:56:35.717Z,86.86
2018-01-01T20:59:05.798Z,86.57
2018-01-01T21:01:35.176Z,86.76
2018-01-01T21:04:05.506Z,86.49
2018-01-01T21:06:35.490Z,86.53
2018-01-01T21:09:04.884Z,86.84
2018-01-01T21:11:34.404Z,86.65
2018-01-01T21:14:04.193Z,86.49
2018-01-01T21:16:34.088Z,86.34
2018-01-01T21:19:04.326Z,86.70
2018-01-01T21:21:34.108Z,86.81
2018-01-01T21:24:03.494Z,86.78
2018-01-01T21:26:33.322Z,87.42
2018-01-01T21:29:03.050Z,87.26
2018-01-01T21:31:32.947Z,87.31
2018-01-01T21:34:02.982Z,87.42
2018-01-01T21:36:34.188Z,87.66
2018-01-01T21:39:03.463Z,87.88
2018-01-01T21:41:34.101Z,87.90
2018-01-01T21:44:04.094Z,87.93
